YTEF/TEF METAR and TAF weather

Enter ICAO airport designator
Station Type Date Time Source
YTEF METAR 2019/12/08 11:00 UTC NOAA

YTEF 081100Z AUTO 25009KT 9999 // NCD 41/02 Q1007


Station Type Date Time Source
YTEF Decoded METAR 2019/12/08 11:00 UTC NOAA

Station name not available
Dec 08, 2019 - 06:00 AM EST / 2019.12.08 1100 UTC
Wind: from the WSW (250 degrees) at 10 MPH (9 KT):0
Visibility: greater than 7 mile(s):0
Temperature: 105 F (41 C)
Dew Point: 35 F (2 C)
Relative Humidity: 9%
Pressure (altimeter): 29.74 in. Hg (1007 hPa)
ob: YTEF 081100Z AUTO 25009KT 9999 // NCD 41/02 Q1007
cycle: 11

Station Type Date Time Source
YTEF TAF 2017/06/24 02:03 UTC NOAA

TAF TAF YTEF 240051Z 2402/2414 12005KT CAVOK
FM240500 33005KT 9999 -SHRA SCT060 BKN100

Example: see airport list